Time;durP1;ratioP1;P1;durP2;ratioP2;P2;SDS_P1;SDS_P2;PMS_P1;PMS_P2;Temp;Humidity;BMP_temperature;BMP_pressure;BME280_temperature;BME280_humidity;BME280_pressure;Samples;Min_cycle;Max_cycle;Signal;HPM_P1;HPM_P2
2021/12/14 00:01:52;;;;;;;12.27;6.23;;;;;;;2.49;100.00;99789.59;5112840;28;20220;-68
2021/12/14 00:04:25;;;;;;;11.83;5.87;;;;;;;2.53;100.00;99793.69;5113336;28;20621;-68
2021/12/14 00:06:53;;;;;;;11.50;6.07;;;;;;;2.47;100.00;99794.69;5113388;28;20290;-68
2021/12/14 00:09:26;;;;;;;11.30;5.90;;;;;;;2.52;100.00;99799.59;5112436;28;20204;-68
2021/12/14 00:12:11;;;;;;;12.33;6.00;;;;;;;2.52;100.00;99809.69;5113069;28;20217;-68
2021/12/14 00:17:27;;;;;;;14.20;6.33;;;;;;;2.55;100.00;99812.13;5112855;28;20219;-68
2021/12/14 00:19:57;;;;;;;12.83;6.53;;;;;;;2.46;100.00;99808.16;5112690;28;20232;-60
2021/12/14 00:22:33;;;;;;;13.43;6.43;;;;;;;2.47;100.00;99809.84;5112991;28;20221;-60
2021/12/14 00:25:00;;;;;;;12.97;7.07;;;;;;;2.49;100.00;99818.19;5112450;28;20197;-60
2021/12/14 00:27:29;;;;;;;13.67;6.63;;;;;;;2.50;100.00;99819.00;5112822;28;20233;-60
2021/12/14 00:29:59;;;;;;;10.20;6.23;;;;;;;2.51;100.00;99819.84;5112402;28;20197;-60
2021/12/14 00:32:31;;;;;;;16.43;7.43;;;;;;;2.53;100.00;99820.63;5112554;28;20217;-68
2021/12/14 00:35:02;;;;;;;12.87;6.50;;;;;;;2.51;100.00;99822.38;5112343;28;20193;-60
2021/12/14 00:37:33;;;;;;;12.60;6.90;;;;;;;2.55;100.00;99829.81;5112395;28;20227;-69
2021/12/14 00:40:03;;;;;;;14.40;6.93;;;;;;;2.49;100.00;99825.75;5111866;27;20596;-60
2021/12/14 00:42:32;;;;;;;13.23;7.00;;;;;;;2.47;100.00;99819.94;5112096;28;20627;-68
2021/12/14 00:44:59;;;;;;;14.67;6.93;;;;;;;2.43;100.00;99828.44;5112090;28;20197;-68
2021/12/14 00:47:26;;;;;;;16.13;6.57;;;;;;;2.49;100.00;99838.38;5112801;28;20209;-68
2021/12/14 00:49:54;;;;;;;13.07;7.10;;;;;;;2.46;100.00;99832.59;5112118;28;20204;-60
2021/12/14 00:52:22;;;;;;;13.30;6.97;;;;;;;2.46;100.00;99822.50;5112343;28;20360;-60
2021/12/14 00:54:50;;;;;;;12.83;6.73;;;;;;;2.43;100.00;99813.31;5111811;28;20201;-60
2021/12/14 00:57:18;;;;;;;12.63;6.50;;;;;;;2.45;100.00;99816.63;5112017;28;20225;-67
2021/12/14 00:59:46;;;;;;;11.63;6.50;;;;;;;2.52;100.00;99816.44;5111897;28;20251;-60
2021/12/14 01:02:17;;;;;;;12.00;6.30;;;;;;;2.54;100.00;99819.75;5112070;28;20237;-60
2021/12/14 01:04:49;;;;;;;12.47;6.77;;;;;;;2.57;100.00;99819.69;5111880;28;20234;-60
2021/12/14 01:07:18;;;;;;;14.10;7.03;;;;;;;2.58;100.00;99823.84;5112251;28;20225;-60
2021/12/14 01:09:48;;;;;;;11.07;5.93;;;;;;;2.58;100.00;99821.31;5111584;28;20702;-61
2021/12/14 01:12:29;;;;;;;13.53;6.70;;;;;;;2.57;100.00;99812.09;5111723;28;20224;-60
2021/12/14 01:15:12;;;;;;;11.67;6.20;;;;;;;2.60;100.00;99812.03;5111517;28;20254;-60
2021/12/14 01:17:52;;;;;;;10.23;6.00;;;;;;;2.57;100.00;99809.59;5111348;28;20213;-69
2021/12/14 01:20:19;;;;;;;12.53;6.37;;;;;;;2.55;100.00;99812.13;5110493;28;20239;-60
2021/12/14 01:22:47;;;;;;;14.83;6.90;;;;;;;2.57;100.00;99809.59;5111268;28;20702;-61
2021/12/14 01:25:19;;;;;;;11.27;6.00;;;;;;;2.58;100.00;99814.56;5111647;28;20625;-60
2021/12/14 01:27:52;;;;;;;12.90;6.27;;;;;;;2.62;100.00;99817.88;5111582;28;20221;-61
2021/12/14 01:30:31;;;;;;;10.00;5.40;;;;;;;2.45;100.00;99819.16;5111587;28;20229;-67
2021/12/14 01:33:03;;;;;;;10.13;5.73;;;;;;;2.39;100.00;99814.25;5111704;28;20224;-60
2021/12/14 01:35:33;;;;;;;12.00;6.33;;;;;;;2.44;100.00;99814.97;5111469;28;20197;-60
2021/12/14 01:38:16;;;;;;;11.93;5.93;;;;;;;2.45;100.00;99818.31;5111748;28;20219;-68
2021/12/14 01:40:54;;;;;;;11.63;5.70;;;;;;;2.33;100.00;99816.97;5111057;27;20225;-68
2021/12/14 01:43:27;;;;;;;11.43;6.03;;;;;;;2.36;100.00;99816.88;5111258;28;20267;-60
2021/12/14 01:45:57;;;;;;;12.57;6.07;;;;;;;2.30;100.00;99806.94;5111117;28;20204;-61
2021/12/14 01:48:25;;;;;;;12.03;6.17;;;;;;;2.25;100.00;99814.63;5111276;28;20197;-60
2021/12/14 01:50:54;;;;;;;13.40;6.57;;;;;;;2.21;100.00;99812.22;5111159;28;20197;-67
2021/12/14 01:53:23;;;;;;;11.50;6.13;;;;;;;2.21;100.00;99812.22;5111360;28;20205;-68
2021/12/14 01:55:53;;;;;;;11.27;6.07;;;;;;;2.20;100.00;99815.63;5110779;28;20667;-68
2021/12/14 01:58:23;;;;;;;11.33;5.97;;;;;;;2.19;100.00;99809.75;5110998;28;20197;-67
2021/12/14 02:00:56;;;;;;;11.90;6.63;;;;;;;2.16;100.00;99806.47;5110617;28;20229;-68
2021/12/14 02:03:32;;;;;;;13.03;6.50;;;;;;;2.20;100.00;99816.44;5111270;28;20287;-60
2021/12/14 02:05:59;;;;;;;12.37;6.17;;;;;;;2.14;100.00;99811.56;5110756;28;20197;-68
2021/12/14 02:08:29;;;;;;;10.83;6.13;;;;;;;2.18;100.00;99813.16;5111080;28;20627;-61
2021/12/14 02:10:59;;;;;;;12.23;6.07;;;;;;;2.20;100.00;99815.63;5110902;28;20236;-61
2021/12/14 02:13:30;;;;;;;12.30;6.10;;;;;;;2.15;100.00;99810.72;5111080;28;20615;-60
2021/12/14 02:15:58;;;;;;;11.90;6.10;;;;;;;2.11;100.00;99810.81;5110789;28;20205;-61
2021/12/14 02:18:26;;;;;;;13.77;6.07;;;;;;;2.11;100.00;99811.63;5110762;28;20194;-68
2021/12/14 02:20:57;;;;;;;12.80;6.57;;;;;;;2.12;100.00;99807.41;5110599;28;20236;-68
2021/12/14 02:23:25;;;;;;;11.80;5.93;;;;;;;2.14;100.00;99813.25;5110664;28;20197;-60
2021/12/14 02:25:54;;;;;;;11.80;6.50;;;;;;;2.10;100.00;99809.16;5110634;28;20193;-60
2021/12/14 02:28:22;;;;;;;13.30;6.63;;;;;;;2.17;100.00;99815.69;5110816;28;20194;-68
2021/12/14 02:30:52;;;;;;;11.73;6.90;;;;;;;2.18;100.00;99818.19;5110537;28;20216;-60
2021/12/14 02:33:22;;;;;;;15.43;6.60;;;;;;;2.15;100.00;99819.94;5114622;28;20665;-68
2021/12/14 02:35:49;;;;;;;12.87;6.30;;;;;;;2.19;100.00;99821.53;5114667;28;20650;-60
2021/12/14 02:38:18;;;;;;;14.03;6.80;;;;;;;2.15;100.00;99819.94;5114667;28;20220;-68
2021/12/14 02:40:57;;;;;;;12.30;6.40;;;;;;;2.16;100.00;99814.06;5114689;27;20622;-60
2021/12/14 02:43:28;;;;;;;13.90;6.67;;;;;;;2.20;100.00;99825.69;5114651;28;20262;-61
2021/12/14 02:46:06;;;;;;;12.57;6.17;;;;;;;2.23;100.00;99820.56;5114580;28;20204;-61
2021/12/14 02:48:33;;;;;;;14.33;6.67;;;;;;;2.20;100.00;99821.47;5114388;28;20189;-68
2021/12/14 02:51:07;;;;;;;13.50;6.50;;;;;;;2.26;100.00;99823.03;5114402;28;20193;-68
2021/12/14 02:53:37;;;;;;;12.57;6.50;;;;;;;2.23;100.00;99823.09;5114128;28;20227;-68
2021/12/14 02:56:10;;;;;;;15.23;6.63;;;;;;;2.27;100.00;99827.22;5114112;28;20204;-60
2021/12/14 02:58:37;;;;;;;14.97;7.27;;;;;;;2.28;100.00;99823.81;5114155;28;20205;-68
2021/12/14 03:01:06;;;;;;;13.53;6.73;;;;;;;2.26;100.00;99823.03;5114102;28;20232;-68
2021/12/14 03:03:33;;;;;;;14.07;7.20;;;;;;;2.31;100.00;99826.25;5114464;28;20208;-68
2021/12/14 03:06:00;;;;;;;15.67;6.70;;;;;;;2.28;100.00;99828.84;5114013;28;20292;-68
2021/12/14 03:08:32;;;;;;;14.77;6.80;;;;;;;2.27;100.00;99832.25;5114295;28;20193;-60
2021/12/14 03:11:10;;;;;;;15.53;7.23;;;;;;;2.33;100.00;99839.66;5114173;28;20204;-68
2021/12/14 03:13:40;;;;;;;15.03;6.97;;;;;;;2.29;100.00;99835.56;5113829;28;20236;-60
2021/12/14 03:16:11;;;;;;;13.77;6.57;;;;;;;2.25;100.00;99839.03;5114060;28;20225;-68
2021/12/14 03:18:41;;;;;;;12.43;6.73;;;;;;;2.20;100.00;99831.56;5114246;28;20193;-68
2021/12/14 03:21:11;;;;;;;14.37;7.37;;;;;;;2.22;100.00;99834.06;5113665;28;20241;-60
2021/12/14 03:23:41;;;;;;;13.30;6.77;;;;;;;2.24;100.00;99834.84;5113951;28;20204;-68
2021/12/14 03:26:12;;;;;;;16.93;7.60;;;;;;;2.24;100.00;99842.41;5113641;28;20744;-60
2021/12/14 03:28:40;;;;;;;14.87;7.13;;;;;;;2.16;100.00;99850.19;5113959;28;20601;-68
2021/12/14 03:31:22;;;;;;;15.00;7.27;;;;;;;2.13;100.00;99851.97;5113728;28;20220;-68
2021/12/14 03:33:53;;;;;;;14.97;7.13;;;;;;;2.10;100.00;99850.34;5113584;28;20203;-60
2021/12/14 03:36:24;;;;;;;13.60;7.07;;;;;;;1.99;100.00;99853.13;5113617;28;20614;-68
2021/12/14 03:38:54;;;;;;;12.97;6.73;;;;;;;2.03;100.00;99844.59;5113828;28;20200;-61
2021/12/14 03:41:26;;;;;;;13.70;6.90;;;;;;;2.08;100.00;99846.22;5113625;28;20229;-60
2021/12/14 03:43:58;;;;;;;16.50;7.43;;;;;;;2.07;100.00;99847.09;5112627;28;20629;-61
2021/12/14 03:46:27;;;;;;;14.30;7.33;;;;;;;2.03;100.00;99852.19;5113229;28;20221;-61
2021/12/14 03:48:54;;;;;;;13.53;6.73;;;;;;;1.99;100.00;99863.22;5113742;28;20201;-68
2021/12/14 03:51:23;;;;;;;15.27;7.17;;;;;;;1.90;100.00;99853.38;5113436;28;20225;-61
2021/12/14 03:53:50;;;;;;;13.50;7.47;;;;;;;1.96;100.00;99860.78;5113252;28;20204;-60
2021/12/14 03:56:18;;;;;;;12.77;6.53;;;;;;;1.98;100.00;99860.75;5112924;28;20271;-60
2021/12/14 03:58:47;;;;;;;15.37;7.40;;;;;;;1.93;100.00;99863.38;5112941;28;20201;-67
2021/12/14 04:01:16;;;;;;;13.83;7.00;;;;;;;1.91;100.00;99867.63;5112893;28;20668;-69
2021/12/14 04:03:45;;;;;;;14.10;6.70;;;;;;;1.78;100.00;99867.09;5112973;28;20197;-68
2021/12/14 04:06:13;;;;;;;15.57;6.50;;;;;;;1.83;100.00;99861.91;5112874;28;20709;-68
2021/12/14 04:08:40;;;;;;;14.63;7.20;;;;;;;1.82;100.00;99865.31;5113082;28;20560;-61
2021/12/14 04:11:10;;;;;;;17.17;6.57;;;;;;;1.75;100.00;99864.66;5112599;28;20603;-60
2021/12/14 04:13:41;;;;;;;14.27;6.90;;;;;;;1.79;100.00;99865.41;5112804;28;20194;-68
2021/12/14 04:16:13;;;;;;;13.20;6.63;;;;;;;1.71;100.00;99872.31;5112798;28;20217;-61
2021/12/14 04:18:40;;;;;;;12.93;6.53;;;;;;;1.77;100.00;99882.25;5112656;27;20201;-61
2021/12/14 04:21:07;;;;;;;13.23;6.57;;;;;;;1.81;100.00;99878.81;5112437;28;20710;-60
2021/12/14 04:23:38;;;;;;;13.27;6.97;;;;;;;1.82;100.00;99880.44;5112411;28;20208;-60
2021/12/14 04:26:07;;;;;;;13.73;7.37;;;;;;;1.78;100.00;99883.91;5112672;28;20585;-60
2021/12/14 04:28:38;;;;;;;14.03;7.13;;;;;;;1.84;100.00;99891.34;5112427;28;20250;-60
2021/12/14 04:31:05;;;;;;;15.73;6.80;;;;;;;1.84;100.00;99883.78;5112633;28;20200;-60
2021/12/14 04:33:42;;;;;;;14.47;7.07;;;;;;;1.84;100.00;99883.78;5112292;28;20204;-61
2021/12/14 04:36:12;;;;;;;14.80;7.20;;;;;;;1.87;100.00;99883.69;5112599;28;20221;-68
2021/12/14 04:38:48;;;;;;;13.67;7.33;;;;;;;1.92;100.00;99886.94;5112329;28;20708;-69
2021/12/14 04:52:23;;;;;;;13.50;6.70;;;;;;;1.99;100.00;99898.53;5112533;28;20579;-60
2021/12/14 04:54:52;;;;;;;13.70;6.67;;;;;;;2.00;100.00;99899.34;5111765;28;20205;-68
2021/12/14 04:57:28;;;;;;;15.17;7.57;;;;;;;1.99;100.00;99902.75;5111812;28;20225;-68
2021/12/14 04:59:57;;;;;;;14.83;6.13;;;;;;;1.98;100.00;99901.94;5111994;28;20221;-60
2021/12/14 05:02:28;;;;;;;13.23;6.60;;;;;;;1.97;100.00;99895.19;5111979;28;20228;-60
2021/12/14 05:04:58;;;;;;;14.60;6.60;;;;;;;2.03;100.00;99902.63;5111951;28;20208;-60
2021/12/14 05:07:34;;;;;;;14.07;6.53;;;;;;;1.97;100.00;99905.28;5111761;28;20702;-68
2021/12/14 05:10:04;;;;;;;15.67;6.77;;;;;;;1.94;100.00;99902.84;5111930;28;20685;-68
2021/12/14 05:12:34;;;;;;;12.63;6.53;;;;;;;1.96;100.00;99918.78;5111925;27;20312;-60
2021/12/14 05:15:05;;;;;;;13.77;6.80;;;;;;;1.92;100.00;99902.06;5111439;28;20204;-60
2021/12/14 05:17:35;;;;;;;12.33;6.13;;;;;;;1.92;100.00;99917.19;5111553;28;20213;-69
2021/12/14 05:20:06;;;;;;;12.70;7.03;;;;;;;1.92;100.00;99917.19;5111439;28;20229;-60
2021/12/14 05:22:36;;;;;;;12.67;6.23;;;;;;;1.91;100.00;99923.09;5111436;28;20642;-68
2021/12/14 05:25:07;;;;;;;13.10;6.33;;;;;;;1.80;100.00;99922.50;5111449;28;20194;-60
2021/12/14 05:27:38;;;;;;;13.77;6.37;;;;;;;1.81;100.00;99924.19;5111386;28;20217;-69
2021/12/14 05:30:10;;;;;;;13.00;6.43;;;;;;;1.83;100.00;99932.53;5111265;28;20300;-60
2021/12/14 05:32:38;;;;;;;14.40;6.50;;;;;;;1.91;100.00;99933.19;5111613;28;20221;-67
2021/12/14 05:35:09;;;;;;;14.87;7.20;;;;;;;1.85;100.00;99940.88;5111314;27;20598;-60
2021/12/14 05:37:44;;;;;;;15.70;7.23;;;;;;;1.82;100.00;99946.00;5111220;28;20239;-68
2021/12/14 05:40:20;;;;;;;17.40;7.53;;;;;;;1.68;100.00;99937.91;5111117;28;20248;-69
2021/12/14 05:45:33;;;;;;;17.03;6.80;;;;;;;1.76;100.00;99951.19;5111133;28;20651;-61
2021/12/14 05:48:00;;;;;;;16.07;7.37;;;;;;;1.79;100.00;99943.56;5110995;28;20228;-68
2021/12/14 05:50:32;;;;;;;17.23;8.27;;;;;;;1.73;100.00;99951.25;5111201;28;20198;-59
2021/12/14 05:52:59;;;;;;;17.30;7.87;;;;;;;1.71;100.00;99947.94;5110999;28;20232;-60
2021/12/14 05:55:28;;;;;;;16.67;7.33;;;;;;;1.73;100.00;99953.78;5111277;28;20204;-67
2021/12/14 05:57:57;;;;;;;16.20;8.00;;;;;;;1.78;100.00;99957.03;5111064;28;20217;-67
2021/12/14 06:00:27;;;;;;;15.50;6.90;;;;;;;1.72;100.00;99955.47;5110818;28;20254;-60
2021/12/14 06:02:54;;;;;;;17.43;7.33;;;;;;;1.78;100.00;99957.03;5110895;28;20229;-67
2021/12/14 06:05:24;;;;;;;16.13;7.97;;;;;;;1.85;100.00;99966.09;5110953;28;20200;-60
2021/12/14 06:07:52;;;;;;;16.83;7.97;;;;;;;1.83;100.00;99962.78;5110484;28;20232;-63
2021/12/14 06:10:22;;;;;;;13.77;7.53;;;;;;;1.80;100.00;99960.31;5110964;28;20205;-60
2021/12/14 06:12:50;;;;;;;17.73;7.97;;;;;;;1.73;100.00;99958.81;5110755;28;20263;-67
2021/12/14 06:15:25;;;;;;;15.97;7.70;;;;;;;1.69;100.00;99960.59;5110751;28;20213;-61
2021/12/14 06:17:52;;;;;;;17.83;7.47;;;;;;;1.82;100.00;99961.13;5111124;28;20217;-68
2021/12/14 06:20:23;;;;;;;18.60;9.03;;;;;;;1.83;100.00;99962.78;5110590;28;20247;-67
2021/12/14 06:22:53;;;;;;;15.13;7.93;;;;;;;1.75;100.00;99964.66;5111085;28;20228;-67
2021/12/14 06:25:24;;;;;;;19.63;8.63;;;;;;;1.63;100.00;99968.28;5110722;28;20201;-68
2021/12/14 06:27:55;;;;;;;20.60;8.87;;;;;;;1.81;100.00;99974.59;5110965;28;20609;-67
2021/12/14 06:30:25;;;;;;;18.83;9.37;;;;;;;1.57;100.00;99974.28;5110681;28;20205;-67
2021/12/14 06:32:55;;;;;;;19.83;8.80;;;;;;;1.54;100.00;99970.97;5110720;28;20221;-61
2021/12/14 06:35:25;;;;;;;18.30;8.23;;;;;;;1.47;100.00;99972.78;5110809;28;20224;-60
2021/12/14 06:38:23;;;;;;;22.93;9.83;;;;;;;1.44;100.00;99980.41;5110684;28;20671;-61
2021/12/14 06:40:58;;;;;;;23.83;9.67;;;;;;;1.49;100.00;99981.16;5110443;28;20233;-60
2021/12/14 06:43:28;;;;;;;18.27;8.27;;;;;;;1.53;100.00;99980.22;5110485;28;20205;-68
2021/12/14 06:45:58;;;;;;;18.93;8.97;;;;;;;1.63;100.00;99988.44;5111090;28;20281;-60
2021/12/14 06:48:31;;;;;;;17.07;8.63;;;;;;;1.71;100.00;99993.31;5110683;28;20189;-61
2021/12/14 06:51:01;;;;;;;20.83;8.70;;;;;;;1.61;100.00;99991.84;5110633;28;20213;-68
2021/12/14 06:53:30;;;;;;;18.10;8.30;;;;;;;1.51;100.00;99992.06;5110652;28;20198;-69
2021/12/14 06:55:59;;;;;;;20.80;9.37;;;;;;;1.51;100.00;99991.19;5110554;28;20197;-61
2021/12/14 06:58:29;;;;;;;21.60;9.57;;;;;;;1.57;100.00;99996.97;5110413;28;20709;-61
2021/12/14 07:01:02;;;;;;;23.83;9.47;;;;;;;1.57;100.00;99999.47;5110487;28;20252;-68
2021/12/14 07:03:42;;;;;;;19.53;8.93;;;;;;;1.46;100.00;99998.88;5110290;28;20197;-61
2021/12/14 07:06:11;;;;;;;21.80;9.80;;;;;;;1.41;100.00;100005.69;5110351;28;20713;-61
2021/12/14 07:08:39;;;;;;;27.33;11.60;;;;;;;1.43;100.00;100003.97;5110114;28;20202;-60
2021/12/14 07:11:06;;;;;;;18.73;8.63;;;;;;;1.56;100.00;100002.03;5110261;28;20737;-68
2021/12/14 07:13:38;;;;;;;24.30;9.90;;;;;;;1.71;100.00;100010.94;5110534;28;20197;-68
2021/12/14 07:16:19;;;;;;;28.40;10.67;;;;;;;1.80;100.00;100008.22;5110520;28;20594;-61
2021/12/14 07:18:46;;;;;;;26.47;10.90;;;;;;;1.50;100.00;100015.56;5111423;28;20280;-61
2021/12/14 07:21:13;;;;;;;24.03;10.27;;;;;;;1.42;100.00;100009.03;5113825;28;20237;-61
2021/12/14 07:23:42;;;;;;;27.27;11.73;;;;;;;1.46;100.00;100019.03;5113837;28;20209;-68
2021/12/14 07:26:12;;;;;;;25.93;11.37;;;;;;;1.54;100.00;100014.66;5113856;27;20223;-60
2021/12/14 07:28:40;;;;;;;42.90;17.73;;;;;;;1.75;100.00;100013.38;5113948;28;20204;-68
2021/12/14 07:31:14;;;;;;;31.93;13.83;;;;;;;1.61;100.00;100017.88;5113863;28;20217;-60
2021/12/14 07:33:47;;;;;;;30.57;15.37;;;;;;;1.61;100.00;100015.38;5113913;28;20190;-67
2021/12/14 07:36:20;;;;;;;73.40;28.90;;;;;;;1.77;100.00;100020.91;5113461;28;20237;-60
2021/12/14 07:38:51;;;;;;;64.27;27.10;;;;;;;1.74;100.00;100020.97;5113427;28;20201;-60
2021/12/14 07:41:25;;;;;;;551.60;210.80;;;;;;;1.74;100.00;100018.44;5112969;28;20237;-60
2021/12/14 07:43:58;;;;;;;573.50;187.47;;;;;;;1.66;100.00;100022.81;5113804;28;20213;-60
2021/12/14 07:46:30;;;;;;;614.43;212.97;;;;;;;1.59;100.00;100020.41;5113538;28;20221;-60
2021/12/14 07:49:00;;;;;;;1047.03;475.70;;;;;;;1.85;100.00;100033.34;5113862;28;20190;-68
2021/12/14 07:51:29;;;;;;;371.47;118.47;;;;;;;1.80;100.00;100029.25;5113375;28;20231;-60
2021/12/14 07:54:05;;;;;;;109.63;42.60;;;;;;;1.76;100.00;100034.38;5113176;28;20208;-60
2021/12/14 07:56:37;;;;;;;489.10;210.00;;;;;;;1.89;100.00;100038.31;5112818;28;20702;-60
2021/12/14 07:59:16;;;;;;;49.37;22.03;;;;;;;1.91;100.00;100046.66;5113119;28;20530;-60
2021/12/14 08:01:43;;;;;;;427.90;160.50;;;;;;;1.92;100.00;100043.28;5112920;28;20236;-67
2021/12/14 08:04:12;;;;;;;198.23;72.27;;;;;;;1.85;100.00;100051.00;5113050;28;20746;-60
2021/12/14 08:06:45;;;;;;;39.50;16.03;;;;;;;1.84;100.00;100055.22;5113062;28;20308;-68
2021/12/14 08:09:18;;;;;;;252.10;90.93;;;;;;;1.83;100.00;100053.53;5113181;28;20201;-67
2021/12/14 08:11:49;;;;;;;210.10;78.83;;;;;;;1.67;100.00;100057.25;5113240;27;20229;-68
2021/12/14 08:14:25;;;;;;;75.60;33.67;;;;;;;1.94;100.00;100064.25;5112823;28;20210;-67
2021/12/14 08:16:57;;;;;;;127.83;59.57;;;;;;;1.53;100.00;100055.81;5113140;28;20219;-67
2021/12/14 08:19:30;;;;;;;73.00;32.00;;;;;;;1.68;100.00;100058.91;5112951;28;20596;-68
2021/12/14 08:21:57;;;;;;;53.40;24.30;;;;;;;1.79;100.00;100059.53;5112591;28;20228;-59
2021/12/14 08:24:25;;;;;;;57.10;28.17;;;;;;;1.83;100.00;100053.53;5112673;28;20204;-66
2021/12/14 08:26:56;;;;;;;26.83;13.87;;;;;;;1.83;100.00;100053.53;5112989;28;20217;-67
2021/12/14 08:29:26;;;;;;;56.57;27.47;;;;;;;1.75;100.00;100055.41;5112207;27;20250;-68
2021/12/14 08:31:58;;;;;;;110.37;60.90;;;;;;;1.68;100.00;100058.91;5112719;28;20217;-61
2021/12/14 08:34:27;;;;;;;31.27;17.53;;;;;;;1.82;100.00;100054.41;5112472;28;20196;-60
2021/12/14 08:37:00;;;;;;;25.93;12.97;;;;;;;1.91;100.00;100050.88;5112755;28;20699;-67
2021/12/14 08:39:30;;;;;;;26.43;13.90;;;;;;;1.78;100.00;100050.31;5112523;28;20197;-60
2021/12/14 08:42:09;;;;;;;23.23;10.53;;;;;;;1.94;100.00;100053.31;5112534;28;20232;-61
2021/12/14 08:44:40;;;;;;;21.27;10.40;;;;;;;2.01;100.00;100048.13;5112126;28;20280;-68
2021/12/14 08:47:10;;;;;;;21.73;10.10;;;;;;;2.06;100.00;100049.72;5112142;28;20303;-60
2021/12/14 08:49:38;;;;;;;26.93;13.67;;;;;;;2.07;100.00;100051.38;5112171;28;20657;-67
2021/12/14 08:52:06;;;;;;;27.07;13.77;;;;;;;1.88;100.00;100046.72;5112315;27;20236;-68
2021/12/14 08:54:37;;;;;;;24.90;11.83;;;;;;;1.83;100.00;100043.47;5112220;28;20216;-61
2021/12/14 08:57:09;;;;;;;34.83;16.50;;;;;;;1.82;100.00;100046.84;5112079;28;20607;-68
2021/12/14 08:59:37;;;;;;;29.23;14.50;;;;;;;1.61;100.00;100042.25;5112353;27;20212;-67
2021/12/14 09:02:07;;;;;;;22.00;10.40;;;;;;;1.77;100.00;100038.53;5111938;28;20229;-68
2021/12/14 09:04:39;;;;;;;21.53;9.67;;;;;;;1.90;100.00;100029.88;5112038;28;20201;-67
2021/12/14 09:07:11;;;;;;;26.87;13.07;;;;;;;1.96;100.00;100032.25;5111872;28;20221;-61
2021/12/14 09:09:41;;;;;;;32.57;14.47;;;;;;;2.00;100.00;100036.34;5112081;28;20686;-60
2021/12/14 09:12:12;;;;;;;25.77;12.10;;;;;;;1.92;100.00;100035.72;5111996;28;20221;-68
2021/12/14 09:14:40;;;;;;;27.00;12.73;;;;;;;1.86;100.00;100033.31;5111958;28;20197;-67
2021/12/14 09:17:10;;;;;;;25.23;11.23;;;;;;;1.90;100.00;100029.88;5111404;28;20217;-67
2021/12/14 09:19:39;;;;;;;23.90;10.00;;;;;;;2.02;100.00;100023.72;5111540;28;20680;-60
2021/12/14 09:22:10;;;;;;;24.80;10.33;;;;;;;2.06;100.00;100019.44;5111634;28;20239;-67
2021/12/14 09:24:39;;;;;;;21.77;9.93;;;;;;;2.08;100.00;100023.59;5111505;28;20224;-61
2021/12/14 09:27:11;;;;;;;22.30;10.40;;;;;;;1.97;100.00;100021.28;5111304;28;20670;-61
2021/12/14 09:29:39;;;;;;;21.13;9.13;;;;;;;1.92;100.00;100024.78;5111524;28;20224;-61
2021/12/14 09:32:09;;;;;;;21.93;10.10;;;;;;;1.86;100.00;100023.22;5111294;28;20612;-67
2021/12/14 09:34:39;;;;;;;21.83;8.80;;;;;;;1.88;100.00;100018.97;5111266;28;20197;-60
2021/12/14 09:37:10;;;;;;;22.83;9.70;;;;;;;1.96;100.00;100014.59;5111623;28;20224;-61
2021/12/14 09:39:40;;;;;;;20.37;9.60;;;;;;;1.96;100.00;100003.69;5111123;28;20726;-60
2021/12/14 09:42:12;;;;;;;20.50;8.57;;;;;;;2.09;100.00;100009.28;5110687;28;20232;-67
2021/12/14 09:44:39;;;;;;;18.67;8.93;;;;;;;1.98;100.00;100007.03;5111208;28;20573;-60
2021/12/14 09:47:10;;;;;;;20.33;8.87;;;;;;;2.02;100.00;100006.91;5111125;28;20217;-62
2021/12/14 09:49:37;;;;;;;20.53;10.53;;;;;;;2.03;100.00;100006.03;5111176;28;20201;-67
2021/12/14 09:52:09;;;;;;;17.97;8.83;;;;;;;2.13;100.00;100005.84;5111247;28;20599;-61
2021/12/14 09:54:38;;;;;;;20.47;9.20;;;;;;;2.28;100.00;100007.19;5111373;28;20220;-67
2021/12/14 09:57:11;;;;;;;20.50;9.20;;;;;;;2.09;100.00;100006.75;5111210;28;20217;-68
2021/12/14 09:59:40;;;;;;;17.13;7.67;;;;;;;2.20;100.00;100012.38;5110947;28;20670;-67
2021/12/14 10:02:10;;;;;;;25.33;9.50;;;;;;;2.20;100.00;99997.25;5110734;28;20241;-67
2021/12/14 10:04:46;;;;;;;20.37;9.40;;;;;;;2.36;100.00;100007.84;5110990;27;20196;-67
2021/12/14 10:07:13;;;;;;;19.33;9.47;;;;;;;2.37;100.00;100012.81;5111204;28;20220;-68
2021/12/14 10:09:45;;;;;;;21.93;10.03;;;;;;;2.43;100.00;100010.16;5110832;28;20209;-68
2021/12/14 10:12:39;;;;;;;21.67;9.63;;;;;;;2.12;100.00;100004.16;5110897;28;20604;-67
2021/12/14 10:15:08;;;;;;;22.73;10.83;;;;;;;2.14;100.00;100003.28;5110565;28;20295;-60
2021/12/14 10:17:36;;;;;;;19.13;9.13;;;;;;;2.24;100.00;100008.91;5110882;28;20298;-67
2021/12/14 10:20:05;;;;;;;19.20;8.90;;;;;;;2.33;100.00;100010.41;5110957;28;20203;-60
2021/12/14 10:22:32;;;;;;;16.93;7.97;;;;;;;2.36;100.00;100003.59;5110841;28;20252;-61
2021/12/14 10:25:01;;;;;;;23.73;12.87;;;;;;;2.25;100.00;100003.03;5110949;28;20564;-67
2021/12/14 10:27:32;;;;;;;48.63;26.50;;;;;;;2.29;100.00;100007.13;5110916;28;20224;-60
2021/12/14 10:30:01;;;;;;;53.10;23.27;;;;;;;2.30;100.00;100006.28;5110574;28;20231;-60
2021/12/14 10:32:31;;;;;;;28.90;14.07;;;;;;;2.33;100.00;100008.72;5110705;28;20589;-61
2021/12/14 10:35:01;;;;;;;34.83;17.17;;;;;;;2.28;100.00;100013.06;5111035;28;20197;-60
2021/12/14 10:37:39;;;;;;;16.93;8.93;;;;;;;2.32;100.00;100002.00;5110679;28;20612;-67
2021/12/14 10:43:12;;;;;;;39.10;20.87;;;;;;;2.31;100.00;99994.50;5087284;28;20549;-61
2021/12/14 10:45:42;;;;;;;59.23;31.87;;;;;;;2.29;100.00;99991.97;5110431;28;20212;-68
2021/12/14 10:48:10;;;;;;;43.57;23.73;;;;;;;2.19;100.00;99998.13;5110427;28;20220;-60
2021/12/14 10:50:38;;;;;;;48.07;25.00;;;;;;;1.91;100.00;99990.34;5110477;28;20205;-60
2021/12/14 10:53:08;;;;;;;57.33;30.43;;;;;;;2.08;100.00;99997.53;5112599;28;20229;-61
2021/12/14 10:55:40;;;;;;;19.40;10.50;;;;;;;1.95;100.00;99990.25;5114623;28;20197;-60
2021/12/14 10:58:09;;;;;;;44.20;26.77;;;;;;;1.97;100.00;99993.56;5114492;28;20217;-60
2021/12/14 11:00:41;;;;;;;25.30;13.80;;;;;;;1.95;100.00;99991.94;5114206;28;20205;-61
2021/12/14 11:03:15;;;;;;;22.77;11.80;;;;;;;2.04;100.00;99986.69;5114119;28;20236;-60
2021/12/14 11:05:45;;;;;;;17.70;8.80;;;;;;;2.06;100.00;99989.19;5114198;28;20201;-60
2021/12/14 11:08:32;;;;;;;22.50;12.40;;;;;;;1.79;100.00;99986.41;5114516;28;20732;-60
2021/12/14 11:10:59;;;;;;;22.40;12.77;;;;;;;1.98;100.00;99987.66;5114264;28;20239;-60
2021/12/14 11:13:38;;;;;;;17.17;9.80;;;;;;;1.94;100.00;99986.06;5114211;27;20616;-67
2021/12/14 11:16:07;;;;;;;22.87;13.27;;;;;;;1.98;100.00;99982.63;5113885;28;20201;-68
2021/12/14 11:18:52;;;;;;;18.83;9.63;;;;;;;1.74;100.00;99983.16;5114000;28;20216;-67
2021/12/14 11:21:22;;;;;;;24.00;14.37;;;;;;;1.63;100.00;99980.03;5113860;28;20623;-60
2021/12/14 11:23:54;;;;;;;26.53;14.60;;;;;;;1.52;100.00;99972.72;5113711;28;20240;-60
2021/12/14 11:26:24;;;;;;;34.53;18.03;;;;;;;1.69;100.00;99969.84;5113701;28;20221;-60
2021/12/14 11:28:55;;;;;;;49.97;27.03;;;;;;;1.77;100.00;99970.47;5114041;28;20198;-60
2021/12/14 11:31:25;;;;;;;28.00;14.57;;;;;;;1.87;100.00;99966.91;5113834;28;20241;-68
2021/12/14 11:33:56;;;;;;;41.30;24.50;;;;;;;1.87;100.00;99969.44;5113888;28;20205;-61
2021/12/14 11:36:30;;;;;;;30.30;18.93;;;;;;;1.86;100.00;99967.75;5114137;28;20224;-68
2021/12/14 11:39:06;;;;;;;18.07;10.70;;;;;;;1.78;100.00;99974.69;5113919;28;20224;-60
2021/12/14 11:41:40;;;;;;;19.67;10.33;;;;;;;1.54;100.00;99976.88;5113708;28;20630;-60
2021/12/14 11:44:14;;;;;;;17.20;9.60;;;;;;;1.69;100.00;99969.84;5113654;28;20205;-60
2021/12/14 11:46:55;;;;;;;15.23;8.80;;;;;;;1.67;100.00;99971.56;5113363;28;20220;-67
2021/12/14 11:49:25;;;;;;;41.43;20.77;;;;;;;1.82;100.00;99966.16;5113486;28;20232;-60
2021/12/14 11:51:52;;;;;;;43.30;22.70;;;;;;;1.90;100.00;99968.53;5113325;28;20734;-68
2021/12/14 11:54:21;;;;;;;19.37;10.10;;;;;;;1.77;100.00;99965.44;5113308;28;20582;-67
2021/12/14 11:56:49;;;;;;;47.53;26.47;;;;;;;1.80;100.00;99967.88;5113015;28;20224;-67